5NBRO DAAT-LFMN
Flight info
| Callsign | 5NBRO |
|---|---|
| Flight time | N/A |
| Altitude | 21000 |
| Route | YAVOC UZ111 OPRIC/N0272F220 UZ111 ELO UR978 CSO UA605 CIRTA DCT BUKID DCT LONSU |
| Aircraft | PC12/L-SDFGRWY/S |
Departure
| Time | 2026-05-07 20:07 |
|---|---|
| Airport | Aguenar – Hadj Bey Akhamok Airport (DAAT) |
Arrival
| Time | N/A |
|---|---|
| Airport | Nice-Côte d'Azur Airport (LFMN) |
| Time | Latitude | Longitude | Altitude | Speed | Heading |
|---|---|---|---|---|---|
| 2026-05-07 20:03 | 22.81097 | 5.45034 | 4476 ft | 0 kts | 262° |
| 2026-05-07 20:06 | 22.81096 | 5.45029 | 4477 ft | 10 kts | 262° |
| 2026-05-07 20:06 | 22.81051 | 5.44694 | 4474 ft | 77 kts | 261° |
| 2026-05-07 20:07 | 22.80948 | 5.43943 | 4524 ft | 117 kts | 264° |
| 2026-05-07 20:07 | 22.80788 | 5.43026 | 4902 ft | 136 kts | 262° |
| 2026-05-07 20:07 | 22.80514 | 5.41953 | 5376 ft | 150 kts | 254° |
| 2026-05-07 20:07 | 22.80268 | 5.40946 | 6416 ft | 131 kts | 275° |
| 2026-05-07 20:08 | 22.80703 | 5.40103 | 7088 ft | 136 kts | 315° |
| 2026-05-07 20:08 | 22.81575 | 5.39575 | 7555 ft | 155 kts | 343° |
| 2026-05-07 20:08 | 22.82676 | 5.39626 | 7992 ft | 162 kts | 6° |
| 2026-05-07 20:08 | 22.83795 | 5.39846 | 8468 ft | 165 kts | 4° |
| 2026-05-07 20:09 | 22.84948 | 5.40012 | 8922 ft | 169 kts | 2° |
| 2026-05-07 20:09 | 22.86126 | 5.40170 | 9407 ft | 172 kts | 2° |
| 2026-05-07 20:09 | 22.87330 | 5.40324 | 9960 ft | 176 kts | 2° |
| 2026-05-07 20:10 | 22.89787 | 5.40642 | 10910 ft | 179 kts | 2° |
| 2026-05-07 20:10 | 22.91033 | 5.40803 | 11408 ft | 181 kts | 3° |
| 2026-05-07 20:10 | 22.92278 | 5.40964 | 11915 ft | 183 kts | 3° |
| 2026-05-07 20:10 | 22.93549 | 5.41128 | 12416 ft | 185 kts | 3° |
| 2026-05-07 20:11 | 22.94831 | 5.41294 | 12876 ft | 187 kts | 4° |
| 2026-05-07 20:11 | 22.96130 | 5.41463 | 13310 ft | 189 kts | 4° |
| 2026-05-07 20:11 | 22.97442 | 5.41633 | 13817 ft | 191 kts | 4° |
| 2026-05-07 20:11 | 22.98768 | 5.41804 | 14240 ft | 193 kts | 4° |
| 2026-05-07 20:12 | 23.00104 | 5.41977 | 14647 ft | 194 kts | 4° |
| 2026-05-07 20:12 | 23.01448 | 5.42152 | 15104 ft | 194 kts | 4° |
| 2026-05-07 20:12 | 23.02803 | 5.42327 | 15546 ft | 197 kts | 4° |
| 2026-05-07 20:12 | 23.04171 | 5.42505 | 16006 ft | 198 kts | 4° |
| 2026-05-07 20:13 | 23.05546 | 5.42683 | 16451 ft | 200 kts | 3° |
| 2026-05-07 20:13 | 23.06932 | 5.42861 | 16879 ft | 201 kts | 3° |
| 2026-05-07 20:13 | 23.08305 | 5.43041 | 17320 ft | 202 kts | 3° |
| 2026-05-07 20:13 | 23.09708 | 5.43222 | 17787 ft | 204 kts | 3° |
| 2026-05-07 20:14 | 23.11125 | 5.43406 | 18261 ft | 206 kts | 3° |
| 2026-05-07 20:14 | 23.12559 | 5.43592 | 18659 ft | 208 kts | 3° |
| 2026-05-07 20:14 | 23.14008 | 5.43781 | 18931 ft | 214 kts | 3° |
| 2026-05-07 20:14 | 23.15568 | 5.43981 | 18986 ft | 237 kts | 3° |
| 2026-05-07 20:15 | 23.17282 | 5.44205 | 18983 ft | 258 kts | 4° |
| 2026-05-07 20:15 | 23.19121 | 5.44447 | 18981 ft | 272 kts | 4° |
| 2026-05-07 20:15 | 23.21014 | 5.44695 | 18978 ft | 282 kts | 4° |
| 2026-05-07 20:15 | 23.22988 | 5.44951 | 18975 ft | 288 kts | 4° |
| 2026-05-07 20:16 | 23.24993 | 5.45212 | 18977 ft | 292 kts | 4° |
| 2026-05-07 20:16 | 23.27016 | 5.45476 | 18971 ft | 294 kts | 4° |
| 2026-05-07 20:16 | 23.29053 | 5.45741 | 18969 ft | 295 kts | 4° |
| 2026-05-07 20:16 | 23.31094 | 5.46006 | 18966 ft | 295 kts | 4° |
| 2026-05-07 20:17 | 23.33137 | 5.46272 | 18974 ft | 295 kts | 4° |
| 2026-05-07 20:17 | 23.35182 | 5.46538 | 18970 ft | 296 kts | 4° |
| 2026-05-07 20:17 | 23.37227 | 5.46805 | 18967 ft | 296 kts | 4° |
| 2026-05-07 20:17 | 23.39275 | 5.47070 | 18966 ft | 296 kts | 4° |
| 2026-05-07 20:18 | 23.41323 | 5.47338 | 18969 ft | 296 kts | 5° |
| 2026-05-07 20:18 | 23.43370 | 5.47606 | 18971 ft | 297 kts | 4° |
| 2026-05-07 20:18 | 23.45422 | 5.47872 | 18972 ft | 297 kts | 4° |
| 2026-05-07 20:18 | 23.47474 | 5.48140 | 18968 ft | 297 kts | 4° |
| 2026-05-07 20:19 | 23.49529 | 5.48408 | 18962 ft | 297 kts | 5° |
| 2026-05-07 20:19 | 23.51555 | 5.48673 | 18967 ft | 297 kts | 4° |
| 2026-05-07 20:19 | 23.52777 | 5.48833 | 18964 ft | 298 kts | 5° |
| 2026-05-07 20:19 | 23.53527 | 5.48931 | 18962 ft | 298 kts | 4° |
| 2026-05-07 20:20 | 23.54223 | 5.49022 | 18961 ft | 298 kts | 4° |
| 2026-05-07 20:20 | 23.55997 | 5.49252 | 18946 ft | 298 kts | 4° |
| 2026-05-07 20:20 | 23.56608 | 5.49332 | 18946 ft | 298 kts | 4° |
| 2026-05-07 20:20 | 23.58762 | 5.49613 | 18946 ft | 298 kts | 4° |
| 2026-05-07 20:21 | 23.60825 | 5.49883 | 18937 ft | 298 kts | 4° |
| 2026-05-07 20:21 | 23.62885 | 5.50152 | 18939 ft | 298 kts | 4° |
| 2026-05-07 20:21 | 23.64952 | 5.50423 | 18938 ft | 299 kts | 4° |
| 2026-05-07 20:21 | 23.67019 | 5.50693 | 18940 ft | 299 kts | 4° |
| 2026-05-07 20:22 | 23.69063 | 5.50961 | 18938 ft | 299 kts | 4° |
| 2026-05-07 20:22 | 23.71129 | 5.51232 | 18933 ft | 299 kts | 4° |
| 2026-05-07 20:22 | 23.73196 | 5.51502 | 18935 ft | 299 kts | 4° |
| 2026-05-07 20:22 | 23.75268 | 5.51772 | 18937 ft | 300 kts | 4° |
| 2026-05-07 20:23 | 23.77338 | 5.52044 | 18934 ft | 300 kts | 4° |
| 2026-05-07 20:23 | 23.79417 | 5.52317 | 18933 ft | 300 kts | 4° |
| 2026-05-07 20:23 | 23.81487 | 5.52588 | 18937 ft | 300 kts | 4° |
| 2026-05-07 20:23 | 23.83570 | 5.52861 | 18931 ft | 301 kts | 4° |
| 2026-05-07 20:24 | 23.85619 | 5.53130 | 18937 ft | 301 kts | 4° |
| 2026-05-07 20:24 | 23.87697 | 5.53402 | 18937 ft | 301 kts | 4° |
| 2026-05-07 20:24 | 23.89777 | 5.53676 | 18941 ft | 301 kts | 4° |
| 2026-05-07 20:24 | 23.91851 | 5.53949 | 18939 ft | 301 kts | 4° |
| 2026-05-07 20:25 | 23.93930 | 5.54222 | 18938 ft | 300 kts | 4° |
| 2026-05-07 20:25 | 23.96006 | 5.54494 | 18936 ft | 300 kts | 4° |
| 2026-05-07 20:25 | 23.98078 | 5.54766 | 18937 ft | 300 kts | 4° |
| 2026-05-07 20:25 | 24.00161 | 5.55040 | 18940 ft | 300 kts | 4° |
| 2026-05-07 20:26 | 24.02232 | 5.55313 | 18942 ft | 300 kts | 4° |
| 2026-05-07 20:26 | 24.04308 | 5.55586 | 18941 ft | 300 kts | 4° |
| 2026-05-07 20:26 | 24.06353 | 5.55855 | 18945 ft | 300 kts | 4° |
| 2026-05-07 20:26 | 24.08424 | 5.56128 | 18949 ft | 300 kts | 4° |
| 2026-05-07 20:27 | 24.10495 | 5.56400 | 18947 ft | 300 kts | 4° |
| 2026-05-07 20:27 | 24.12572 | 5.56674 | 18953 ft | 300 kts | 4° |
| 2026-05-07 20:27 | 24.14651 | 5.56949 | 18950 ft | 300 kts | 4° |
| 2026-05-07 20:27 | 24.16724 | 5.57221 | 18950 ft | 300 kts | 4° |
| 2026-05-07 20:28 | 24.18799 | 5.57495 | 18953 ft | 301 kts | 4° |
| 2026-05-07 20:28 | 24.20879 | 5.57770 | 18956 ft | 301 kts | 4° |
| 2026-05-07 20:28 | 24.22966 | 5.58045 | 18955 ft | 302 kts | 4° |
| 2026-05-07 20:28 | 24.25052 | 5.58320 | 18957 ft | 302 kts | 4° |
| 2026-05-07 20:29 | 24.27138 | 5.58596 | 18957 ft | 302 kts | 4° |
| 2026-05-07 20:29 | 24.29227 | 5.58871 | 18965 ft | 303 kts | 3° |
| 2026-05-07 20:29 | 24.31323 | 5.59149 | 18957 ft | 303 kts | 3° |
| 2026-05-07 20:29 | 24.33418 | 5.59424 | 18963 ft | 303 kts | 3° |
| 2026-05-07 20:30 | 24.35497 | 5.59700 | 18963 ft | 305 kts | 3° |
| 2026-05-07 20:30 | 24.37602 | 5.59979 | 18964 ft | 305 kts | 3° |
| 2026-05-07 20:30 | 24.39710 | 5.60258 | 18963 ft | 306 kts | 3° |
| 2026-05-07 20:30 | 24.41818 | 5.60537 | 18963 ft | 305 kts | 3° |
| 2026-05-07 20:31 | 24.43925 | 5.60815 | 18969 ft | 304 kts | 3° |
| 2026-05-07 20:31 | 24.45344 | 5.61002 | 18969 ft | 305 kts | 3° |
| 2026-05-07 20:31 | 24.48135 | 5.61372 | 18969 ft | 305 kts | 3° |
| 2026-05-07 20:31 | 24.50242 | 5.61653 | 18968 ft | 304 kts | 3° |
| 2026-05-07 20:32 | 24.51662 | 5.61843 | 18971 ft | 304 kts | 3° |
| 2026-05-07 20:32 | 24.53739 | 5.62117 | 18971 ft | 305 kts | 3° |
| 2026-05-07 20:32 | 24.55848 | 5.62395 | 18965 ft | 305 kts | 3° |
| 2026-05-07 20:32 | 24.57963 | 5.62676 | 18970 ft | 306 kts | 3° |
| 2026-05-07 20:33 | 24.60083 | 5.62957 | 18976 ft | 308 kts | 3° |
| 2026-05-07 20:33 | 24.62210 | 5.63240 | 18972 ft | 307 kts | 2° |
| 2026-05-07 20:33 | 24.64330 | 5.63522 | 18971 ft | 307 kts | 3° |
| 2026-05-07 20:33 | 24.66449 | 5.63804 | 18972 ft | 307 kts | 3° |
| 2026-05-07 20:34 | 24.68573 | 5.64086 | 18977 ft | 307 kts | 3° |
| 2026-05-07 20:34 | 24.70701 | 5.64368 | 18978 ft | 309 kts | 3° |
| 2026-05-07 20:34 | 24.72216 | 5.64570 | 18971 ft | 308 kts | 3° |
| 2026-05-07 20:36 | 24.73794 | 5.64782 | 18974 ft | 305 kts | 3° |
| 2026-05-07 20:36 | 24.75900 | 5.65061 | 18974 ft | 305 kts | 3° |
| 2026-05-07 20:36 | 24.78006 | 5.65342 | 18974 ft | 306 kts | 4° |
| 2026-05-07 20:37 | 24.80117 | 5.65627 | 18973 ft | 306 kts | 3° |
| 2026-05-07 20:37 | 24.82870 | 5.65993 | 18973 ft | 306 kts | 3° |
| 2026-05-07 20:37 | 24.87101 | 5.66556 | 18974 ft | 307 kts | 3° |
| 2026-05-07 20:37 | 24.91348 | 5.67123 | 18973 ft | 307 kts | 3° |
| 2026-05-07 20:38 | 24.95592 | 5.67689 | 18976 ft | 307 kts | 3° |
| 2026-05-07 20:38 | 24.99834 | 5.68256 | 18983 ft | 307 kts | 3° |
| 2026-05-07 20:38 | 25.04086 | 5.68824 | 18982 ft | 308 kts | 3° |
| 2026-05-07 20:38 | 25.08346 | 5.69395 | 18984 ft | 308 kts | 3° |
| 2026-05-07 20:39 | 25.12544 | 5.69956 | 18976 ft | 308 kts | 3° |
| 2026-05-07 20:39 | 25.16807 | 5.70527 | 18977 ft | 308 kts | 3° |
| 2026-05-07 20:39 | 25.21058 | 5.71097 | 18979 ft | 308 kts | 3° |
| 2026-05-07 20:39 | 25.25317 | 5.71668 | 18981 ft | 308 kts | 3° |
| 2026-05-07 20:40 | 25.29562 | 5.72238 | 18984 ft | 308 kts | 3° |
| 2026-05-07 20:40 | 25.33816 | 5.72810 | 18983 ft | 308 kts | 3° |
| 2026-05-07 20:40 | 25.38072 | 5.73381 | 18983 ft | 308 kts | 3° |
| 2026-05-07 20:40 | 25.42332 | 5.73955 | 18981 ft | 309 kts | 3° |
| 2026-05-07 20:41 | 25.46597 | 5.74529 | 18982 ft | 308 kts | 3° |
| 2026-05-07 20:41 | 25.50855 | 5.75102 | 18980 ft | 308 kts | 3° |
| 2026-05-07 20:41 | 25.55110 | 5.75677 | 18981 ft | 308 kts | 3° |
| 2026-05-07 20:41 | 25.59358 | 5.76250 | 18986 ft | 308 kts | 3° |
| 2026-05-07 20:42 | 25.63621 | 5.76825 | 18984 ft | 308 kts | 2° |
| 2026-05-07 20:42 | 25.67883 | 5.77401 | 18977 ft | 308 kts | 2° |
| 2026-05-07 20:42 | 25.72137 | 5.77975 | 18978 ft | 308 kts | 3° |
| 2026-05-07 20:42 | 25.76390 | 5.78551 | 18983 ft | 308 kts | 3° |
| 2026-05-07 20:43 | 25.80636 | 5.79126 | 18982 ft | 308 kts | 2° |
| 2026-05-07 20:43 | 25.84896 | 5.79703 | 18983 ft | 308 kts | 2° |
| 2026-05-07 20:43 | 25.89160 | 5.80281 | 18987 ft | 308 kts | 2° |
| 2026-05-07 20:43 | 25.93417 | 5.80859 | 18987 ft | 309 kts | 2° |
| 2026-05-07 20:44 | 25.97690 | 5.81439 | 18993 ft | 309 kts | 2° |
| 2026-05-07 20:44 | 26.01912 | 5.82000 | 18992 ft | 309 kts | 1° |
| 2026-05-07 20:44 | 26.06189 | 5.82485 | 18994 ft | 309 kts | 1° |
| 2026-05-07 20:44 | 26.10462 | 5.83003 | 18990 ft | 309 kts | 2° |
| 2026-05-07 20:45 | 26.14746 | 5.83513 | 18989 ft | 309 kts | 2° |
| 2026-05-07 20:45 | 26.19023 | 5.84024 | 18992 ft | 309 kts | 1° |
| 2026-05-07 20:45 | 26.23303 | 5.84537 | 18994 ft | 309 kts | 2° |
| 2026-05-07 20:45 | 26.27595 | 5.85049 | 18990 ft | 311 kts | 1° |
| 2026-05-07 20:46 | 26.31891 | 5.85565 | 18997 ft | 311 kts | 2° |
| 2026-05-07 20:46 | 26.36212 | 5.86084 | 18993 ft | 312 kts | 1° |
| 2026-05-07 20:46 | 26.40520 | 5.86601 | 18996 ft | 311 kts | 2° |
| 2026-05-07 20:46 | 26.44831 | 5.87118 | 18993 ft | 311 kts | 2° |
| 2026-05-07 20:47 | 26.49128 | 5.87635 | 18996 ft | 311 kts | 1° |
| 2026-05-07 20:47 | 26.53451 | 5.88153 | 18994 ft | 313 kts | 2° |
| 2026-05-07 20:47 | 26.57782 | 5.88676 | 18993 ft | 313 kts | 2° |
| 2026-05-07 20:47 | 26.62130 | 5.89199 | 18988 ft | 315 kts | 2° |
| 2026-05-07 20:48 | 26.66502 | 5.89726 | 18983 ft | 316 kts | 2° |
| 2026-05-07 20:48 | 26.70879 | 5.90255 | 18981 ft | 316 kts | 2° |
| 2026-05-07 20:48 | 26.75258 | 5.90783 | 18979 ft | 316 kts | 1° |
| 2026-05-07 20:48 | 26.79568 | 5.91304 | 18970 ft | 316 kts | 1° |
| 2026-05-07 20:49 | 26.84002 | 5.91840 | 18971 ft | 317 kts | 1° |
| 2026-05-07 20:49 | 26.88334 | 5.92364 | 18976 ft | 317 kts | 1° |
| 2026-05-07 20:49 | 26.92732 | 5.92897 | 18975 ft | 318 kts | 1° |
| 2026-05-07 20:49 | 26.97149 | 5.93432 | 18971 ft | 319 kts | 1° |
| 2026-05-07 20:50 | 27.01560 | 5.93968 | 18961 ft | 318 kts | 1° |
| 2026-05-07 20:50 | 27.05957 | 5.94502 | 18967 ft | 316 kts | 0° |
| 2026-05-07 20:50 | 27.10338 | 5.95033 | 18962 ft | 317 kts | 0° |
| 2026-05-07 20:50 | 27.14721 | 5.95566 | 18959 ft | 317 kts | 0° |
| 2026-05-07 20:51 | 27.19104 | 5.96100 | 18959 ft | 317 kts | 0° |
| 2026-05-07 20:51 | 27.23494 | 5.96634 | 18959 ft | 317 kts | 360° |
| 2026-05-07 20:51 | 27.27889 | 5.97170 | 18959 ft | 317 kts | 360° |
| 2026-05-07 20:51 | 27.32232 | 5.97700 | 18954 ft | 317 kts | 360° |
| 2026-05-07 20:52 | 27.36624 | 5.98236 | 18953 ft | 317 kts | 359° |
| 2026-05-07 20:52 | 27.41002 | 5.98771 | 18960 ft | 316 kts | 359° |
| 2026-05-07 20:52 | 27.45383 | 5.99306 | 18954 ft | 317 kts | 359° |
| 2026-05-07 20:52 | 27.49761 | 5.99843 | 18956 ft | 316 kts | 359° |
| 2026-05-07 20:53 | 27.54123 | 6.00376 | 18955 ft | 316 kts | 359° |
| 2026-05-07 20:53 | 27.58488 | 6.00911 | 18957 ft | 315 kts | 359° |
| 2026-05-07 20:53 | 27.62845 | 6.01446 | 18952 ft | 315 kts | 359° |
| 2026-05-07 20:53 | 27.67205 | 6.01981 | 18949 ft | 315 kts | 359° |
| 2026-05-07 20:54 | 27.71554 | 6.02515 | 18949 ft | 314 kts | 359° |
| 2026-05-07 20:54 | 27.75915 | 6.03052 | 18947 ft | 314 kts | 359° |
| 2026-05-07 20:54 | 27.80260 | 6.03586 | 18946 ft | 314 kts | 358° |
| 2026-05-07 20:54 | 27.84604 | 6.04120 | 18943 ft | 314 kts | 358° |
| 2026-05-07 20:55 | 27.88943 | 6.04656 | 18941 ft | 314 kts | 358° |
| 2026-05-07 20:55 | 27.93226 | 6.05185 | 18940 ft | 314 kts | 358° |
| 2026-05-07 20:55 | 27.97561 | 6.05719 | 18940 ft | 313 kts | 358° |
| 2026-05-07 20:55 | 28.01896 | 6.06255 | 18939 ft | 313 kts | 358° |
| 2026-05-07 20:56 | 28.06232 | 6.06791 | 18938 ft | 313 kts | 358° |
| 2026-05-07 20:56 | 28.10561 | 6.07327 | 18933 ft | 312 kts | 358° |
| 2026-05-07 20:56 | 28.14881 | 6.07861 | 18937 ft | 312 kts | 358° |
| 2026-05-07 20:56 | 28.19199 | 6.08397 | 18930 ft | 312 kts | 358° |
| 2026-05-07 20:57 | 28.23527 | 6.08933 | 18928 ft | 312 kts | 357° |
| 2026-05-07 20:57 | 28.27844 | 6.09464 | 18933 ft | 312 kts | 357° |
| 2026-05-07 20:57 | 28.32161 | 6.10003 | 18935 ft | 312 kts | 357° |
| 2026-05-07 20:57 | 28.36481 | 6.10539 | 18931 ft | 313 kts | 357° |
| 2026-05-07 20:58 | 28.40740 | 6.11070 | 18932 ft | 313 kts | 357° |
| 2026-05-07 20:58 | 28.45076 | 6.11609 | 18934 ft | 313 kts | 357° |
| 2026-05-07 20:58 | 28.49403 | 6.12149 | 18928 ft | 313 kts | 357° |
| 2026-05-07 20:58 | 28.53737 | 6.12691 | 18929 ft | 314 kts | 357° |
| 2026-05-07 20:59 | 28.58074 | 6.13231 | 18928 ft | 314 kts | 357° |
| 2026-05-07 20:59 | 28.62422 | 6.13775 | 18927 ft | 315 kts | 358° |
| 2026-05-07 20:59 | 28.66774 | 6.14320 | 18923 ft | 314 kts | 358° |
| 2026-05-07 20:59 | 28.71121 | 6.14864 | 18927 ft | 314 kts | 357° |
| 2026-05-07 21:00 | 28.75477 | 6.15410 | 18930 ft | 314 kts | 357° |
| 2026-05-07 21:00 | 28.79821 | 6.15955 | 18927 ft | 314 kts | 357° |
| 2026-05-07 21:00 | 28.84172 | 6.16502 | 18918 ft | 315 kts | 357° |
| 2026-05-07 21:00 | 28.88530 | 6.17050 | 18923 ft | 314 kts | 357° |
| 2026-05-07 21:01 | 28.92881 | 6.17595 | 18923 ft | 314 kts | 357° |
| 2026-05-07 21:01 | 28.97179 | 6.18138 | 18916 ft | 314 kts | 357° |
| 2026-05-07 21:01 | 29.01539 | 6.18686 | 18918 ft | 314 kts | 357° |
| 2026-05-07 21:01 | 29.05877 | 6.19234 | 18920 ft | 313 kts | 357° |
| 2026-05-07 21:02 | 29.10213 | 6.19780 | 18924 ft | 313 kts | 357° |
| 2026-05-07 21:02 | 29.14536 | 6.20326 | 18917 ft | 313 kts | 357° |
| 2026-05-07 21:02 | 29.18880 | 6.20885 | 18916 ft | 312 kts | 358° |
| 2026-05-07 21:02 | 29.23186 | 6.21426 | 18913 ft | 311 kts | 358° |
| 2026-05-07 21:03 | 29.27487 | 6.21969 | 18912 ft | 310 kts | 358° |
| 2026-05-07 21:03 | 29.31774 | 6.22514 | 18914 ft | 310 kts | 357° |
| 2026-05-07 21:03 | 29.36061 | 6.23057 | 18912 ft | 309 kts | 358° |
| 2026-05-07 21:03 | 29.40333 | 6.23600 | 18908 ft | 308 kts | 357° |
| 2026-05-07 21:04 | 29.44540 | 6.24134 | 18911 ft | 308 kts | 357° |
| 2026-05-07 21:04 | 29.48791 | 6.24674 | 18907 ft | 307 kts | 357° |
| 2026-05-07 21:04 | 29.53039 | 6.25215 | 18907 ft | 307 kts | 357° |
| 2026-05-07 21:04 | 29.57290 | 6.25756 | 18907 ft | 306 kts | 357° |
| 2026-05-07 21:05 | 29.61525 | 6.26296 | 18904 ft | 306 kts | 357° |
| 2026-05-07 21:05 | 29.65757 | 6.26836 | 18908 ft | 306 kts | 357° |
| 2026-05-07 21:05 | 29.69984 | 6.27376 | 18907 ft | 306 kts | 357° |
| 2026-05-07 21:05 | 29.74210 | 6.27916 | 18904 ft | 306 kts | 357° |
| 2026-05-07 21:06 | 29.78450 | 6.28458 | 18907 ft | 305 kts | 356° |
| 2026-05-07 21:06 | 29.82670 | 6.28998 | 18905 ft | 306 kts | 356° |
| 2026-05-07 21:06 | 29.86897 | 6.29540 | 18907 ft | 305 kts | 356° |
| 2026-05-07 21:06 | 29.91130 | 6.30082 | 18901 ft | 306 kts | 356° |
| 2026-05-07 21:07 | 29.95315 | 6.30620 | 18898 ft | 305 kts | 356° |
| 2026-05-07 21:07 | 29.99524 | 6.31160 | 18903 ft | 305 kts | 356° |
| 2026-05-07 21:07 | 30.03740 | 6.31702 | 18901 ft | 305 kts | 356° |
| 2026-05-07 21:07 | 30.07959 | 6.32245 | 18899 ft | 305 kts | 356° |
| 2026-05-07 21:08 | 30.12193 | 6.32790 | 18899 ft | 305 kts | 357° |
| 2026-05-07 21:08 | 30.16417 | 6.33334 | 18895 ft | 306 kts | 357° |
| 2026-05-07 21:08 | 30.20659 | 6.33882 | 18895 ft | 306 kts | 357° |
| 2026-05-07 21:08 | 30.24888 | 6.34428 | 18896 ft | 306 kts | 357° |
| 2026-05-07 21:09 | 30.29135 | 6.34977 | 18896 ft | 306 kts | 357° |
| 2026-05-07 21:09 | 30.33363 | 6.35523 | 18892 ft | 306 kts | 357° |
| 2026-05-07 21:09 | 30.37598 | 6.36072 | 18891 ft | 306 kts | 357° |
| 2026-05-07 21:09 | 30.41828 | 6.36620 | 18890 ft | 306 kts | 358° |
| 2026-05-07 21:10 | 30.46067 | 6.37169 | 18890 ft | 307 kts | 358° |
| 2026-05-07 21:10 | 30.50311 | 6.37721 | 18890 ft | 306 kts | 358° |
| 2026-05-07 21:10 | 30.54550 | 6.38271 | 18889 ft | 306 kts | 358° |
| 2026-05-07 21:10 | 30.58791 | 6.38822 | 18888 ft | 307 kts | 358° |
| 2026-05-07 21:11 | 30.63038 | 6.39375 | 18890 ft | 307 kts | 358° |
| 2026-05-07 21:11 | 30.67234 | 6.39921 | 18888 ft | 307 kts | 358° |
| 2026-05-07 21:11 | 30.75739 | 6.41031 | 18889 ft | 307 kts | 358° |
| 2026-05-07 21:12 | 30.79990 | 6.41585 | 18885 ft | 307 kts | 358° |
| 2026-05-07 21:12 | 30.84231 | 6.42140 | 18886 ft | 307 kts | 359° |
| 2026-05-07 21:12 | 30.88486 | 6.42697 | 18885 ft | 306 kts | 359° |
| 2026-05-07 21:12 | 30.92716 | 6.43251 | 18889 ft | 306 kts | 359° |
| 2026-05-07 21:13 | 30.96961 | 6.43807 | 18884 ft | 306 kts | 359° |
| 2026-05-07 21:13 | 31.01186 | 6.44362 | 18885 ft | 305 kts | 359° |
| 2026-05-07 21:13 | 31.05406 | 6.44916 | 18887 ft | 305 kts | 359° |
| 2026-05-07 21:13 | 31.09578 | 6.45464 | 18886 ft | 305 kts | 359° |
| 2026-05-07 21:14 | 31.13798 | 6.46020 | 18884 ft | 305 kts | 359° |
| 2026-05-07 21:14 | 31.18023 | 6.46575 | 18884 ft | 305 kts | 359° |
| 2026-05-07 21:14 | 31.22229 | 6.47131 | 18884 ft | 305 kts | 359° |
| 2026-05-07 21:14 | 31.26442 | 6.47685 | 18884 ft | 305 kts | 359° |
| 2026-05-07 21:15 | 31.30654 | 6.48242 | 18884 ft | 304 kts | 359° |
| 2026-05-07 21:15 | 31.34868 | 6.48799 | 18886 ft | 304 kts | 359° |
| 2026-05-07 21:15 | 31.39072 | 6.49354 | 18883 ft | 304 kts | 359° |
| 2026-05-07 21:15 | 31.43275 | 6.49911 | 18885 ft | 304 kts | 359° |
| 2026-05-07 21:16 | 31.47477 | 6.50467 | 18883 ft | 304 kts | 359° |
| 2026-05-07 21:16 | 31.51677 | 6.51025 | 18885 ft | 304 kts | 359° |
| 2026-05-07 21:16 | 31.55885 | 6.51583 | 18881 ft | 304 kts | 359° |
| 2026-05-07 21:16 | 31.60024 | 6.52133 | 18887 ft | 303 kts | 359° |
| 2026-05-07 21:17 | 31.64269 | 6.52697 | 18885 ft | 303 kts | 359° |
| 2026-05-07 21:17 | 31.68407 | 6.53248 | 18880 ft | 303 kts | 359° |
| 2026-05-07 21:17 | 31.72588 | 6.53805 | 18881 ft | 302 kts | 359° |
| 2026-05-07 21:17 | 31.76770 | 6.54363 | 18882 ft | 303 kts | 359° |
| 2026-05-07 21:18 | 31.80965 | 6.54922 | 18881 ft | 303 kts | 359° |
| 2026-05-07 21:18 | 31.85152 | 6.55483 | 18876 ft | 302 kts | 359° |
| 2026-05-07 21:18 | 31.87979 | 6.55860 | 18875 ft | 302 kts | 359° |
| 2026-05-07 21:18 | 31.93509 | 6.56600 | 18878 ft | 302 kts | 359° |
| 2026-05-07 21:19 | 31.96333 | 6.56978 | 18879 ft | 302 kts | 359° |
| 2026-05-07 21:19 | 32.00463 | 6.57531 | 18877 ft | 302 kts | 359° |
| 2026-05-07 21:19 | 32.04641 | 6.58092 | 18878 ft | 302 kts | 359° |
| 2026-05-07 21:19 | 32.08823 | 6.58654 | 18875 ft | 302 kts | 359° |
| 2026-05-07 21:20 | 32.12989 | 6.59214 | 18874 ft | 302 kts | 359° |
| 2026-05-07 21:20 | 32.17169 | 6.59775 | 18876 ft | 302 kts | 359° |
| 2026-05-07 21:20 | 32.21341 | 6.60338 | 18875 ft | 301 kts | 359° |
| 2026-05-07 21:20 | 32.25508 | 6.60898 | 18871 ft | 302 kts | 359° |
| 2026-05-07 21:21 | 32.29681 | 6.61462 | 18872 ft | 301 kts | 359° |
| 2026-05-07 21:21 | 32.33846 | 6.62025 | 18871 ft | 301 kts | 359° |
| 2026-05-07 21:21 | 32.38006 | 6.62587 | 18873 ft | 301 kts | 359° |
| 2026-05-07 21:21 | 32.42174 | 6.63150 | 18870 ft | 301 kts | 359° |
| 2026-05-07 21:22 | 32.46343 | 6.63715 | 18869 ft | 301 kts | 359° |
| 2026-05-07 21:22 | 32.50505 | 6.64279 | 18872 ft | 301 kts | 359° |
| 2026-05-07 21:22 | 32.54625 | 6.64838 | 18869 ft | 301 kts | 359° |
| 2026-05-07 21:22 | 32.58790 | 6.65403 | 18870 ft | 301 kts | 359° |
| 2026-05-07 21:23 | 32.62959 | 6.65970 | 18872 ft | 301 kts | 359° |
| 2026-05-07 21:23 | 32.67117 | 6.66536 | 18875 ft | 301 kts | 359° |
| 2026-05-07 21:23 | 32.71277 | 6.67102 | 18875 ft | 300 kts | 359° |
| 2026-05-07 21:23 | 32.75423 | 6.67667 | 18874 ft | 300 kts | 359° |
| 2026-05-07 21:24 | 32.79587 | 6.68235 | 18875 ft | 300 kts | 359° |
| 2026-05-07 21:24 | 32.83726 | 6.68800 | 18876 ft | 299 kts | 359° |
| 2026-05-07 21:24 | 32.87810 | 6.69358 | 18880 ft | 299 kts | 359° |
| 2026-05-07 21:24 | 32.91952 | 6.69925 | 18878 ft | 299 kts | 359° |
| 2026-05-07 21:25 | 32.96084 | 6.70491 | 18883 ft | 299 kts | 359° |
| 2026-05-07 21:25 | 33.00212 | 6.71057 | 18880 ft | 298 kts | 359° |
| 2026-05-07 21:25 | 33.04329 | 6.71622 | 18882 ft | 297 kts | 359° |
| 2026-05-07 21:25 | 33.08445 | 6.72187 | 18886 ft | 297 kts | 359° |
| 2026-05-07 21:26 | 33.12546 | 6.72750 | 18882 ft | 296 kts | 359° |
| 2026-05-07 21:26 | 33.16635 | 6.73313 | 18880 ft | 296 kts | 359° |
| 2026-05-07 21:26 | 33.20716 | 6.73874 | 18878 ft | 295 kts | 360° |
| 2026-05-07 21:26 | 33.24786 | 6.74436 | 18874 ft | 294 kts | 359° |
| 2026-05-07 21:27 | 33.28863 | 6.74998 | 18877 ft | 294 kts | 359° |
| 2026-05-07 21:27 | 33.32923 | 6.75558 | 18871 ft | 294 kts | 359° |
| 2026-05-07 21:27 | 33.36933 | 6.76113 | 18876 ft | 294 kts | 359° |
| 2026-05-07 21:27 | 33.41002 | 6.76676 | 18870 ft | 294 kts | 359° |
| 2026-05-07 21:28 | 33.45065 | 6.77238 | 18868 ft | 294 kts | 359° |
| 2026-05-07 21:28 | 33.49140 | 6.77803 | 18868 ft | 294 kts | 359° |
| 2026-05-07 21:28 | 33.52992 | 6.77932 | 19054 ft | 254 kts | 348° |
| 2026-05-07 21:28 | 33.56321 | 6.77759 | 20088 ft | 225 kts | 347° |
| 2026-05-07 21:29 | 33.59475 | 6.77544 | 20758 ft | 241 kts | 347° |
| 2026-05-07 21:29 | 33.63079 | 6.77326 | 20773 ft | 273 kts | 349° |
| 2026-05-07 21:29 | 33.66983 | 6.77101 | 20776 ft | 286 kts | 349° |
| 2026-05-07 21:29 | 33.70982 | 6.76858 | 20786 ft | 289 kts | 349° |
| 2026-05-07 21:30 | 33.75007 | 6.76615 | 20867 ft | 288 kts | 349° |
| 2026-05-07 21:30 | 33.79028 | 6.76368 | 20874 ft | 290 kts | 349° |
| 2026-05-07 21:30 | 33.83054 | 6.76124 | 20881 ft | 290 kts | 350° |
| 2026-05-07 21:30 | 33.87088 | 6.75878 | 20888 ft | 290 kts | 349° |
| 2026-05-07 21:31 | 33.91114 | 6.75632 | 20888 ft | 290 kts | 350° |
| 2026-05-07 21:31 | 33.95154 | 6.75385 | 20890 ft | 290 kts | 350° |
| 2026-05-07 21:31 | 33.99171 | 6.75139 | 20889 ft | 289 kts | 350° |
| 2026-05-07 21:31 | 34.03186 | 6.74894 | 20889 ft | 289 kts | 350° |
| 2026-05-07 21:32 | 34.07154 | 6.74651 | 20890 ft | 288 kts | 350° |
| 2026-05-07 21:32 | 34.11209 | 6.74402 | 20891 ft | 288 kts | 350° |
| 2026-05-07 21:32 | 34.15215 | 6.74156 | 20893 ft | 288 kts | 350° |
| 2026-05-07 21:32 | 34.19164 | 6.73914 | 20896 ft | 287 kts | 350° |
| 2026-05-07 21:33 | 34.23152 | 6.73668 | 20897 ft | 286 kts | 350° |
| 2026-05-07 21:33 | 34.27136 | 6.73423 | 20898 ft | 286 kts | 350° |
| 2026-05-07 21:33 | 34.31103 | 6.73179 | 20900 ft | 285 kts | 350° |
| 2026-05-07 21:33 | 34.35074 | 6.72933 | 20895 ft | 285 kts | 350° |
| 2026-05-07 21:34 | 34.39023 | 6.72690 | 20901 ft | 284 kts | 349° |
| 2026-05-07 21:34 | 34.42970 | 6.72446 | 20895 ft | 284 kts | 349° |
| 2026-05-07 21:34 | 34.46921 | 6.72202 | 20907 ft | 284 kts | 349° |
| 2026-05-07 21:34 | 34.50863 | 6.71957 | 20909 ft | 283 kts | 349° |
| 2026-05-07 21:35 | 34.54807 | 6.71713 | 20914 ft | 283 kts | 349° |
| 2026-05-07 21:35 | 34.58742 | 6.71469 | 20916 ft | 283 kts | 349° |
| 2026-05-07 21:35 | 34.62686 | 6.71224 | 20925 ft | 283 kts | 349° |
| 2026-05-07 21:35 | 34.66615 | 6.70979 | 20923 ft | 283 kts | 349° |
| 2026-05-07 21:36 | 34.70549 | 6.70735 | 20926 ft | 283 kts | 349° |
| 2026-05-07 21:36 | 34.74480 | 6.70490 | 20931 ft | 283 kts | 349° |
| 2026-05-07 21:36 | 34.78404 | 6.70245 | 20938 ft | 282 kts | 349° |
| 2026-05-07 21:36 | 34.82281 | 6.70005 | 20943 ft | 282 kts | 349° |
| 2026-05-07 21:37 | 34.86259 | 6.69763 | 20944 ft | 282 kts | 349° |
| 2026-05-07 21:37 | 34.90167 | 6.69522 | 20951 ft | 282 kts | 349° |
| 2026-05-07 21:37 | 34.94036 | 6.69285 | 20955 ft | 282 kts | 349° |
| 2026-05-07 21:37 | 34.97960 | 6.69045 | 20955 ft | 282 kts | 349° |
| 2026-05-07 21:38 | 35.01870 | 6.68803 | 20958 ft | 280 kts | 349° |
| 2026-05-07 21:38 | 35.05766 | 6.68565 | 20964 ft | 280 kts | 349° |
| 2026-05-07 21:38 | 35.09659 | 6.68325 | 20975 ft | 280 kts | 349° |
| 2026-05-07 21:38 | 35.13560 | 6.68083 | 20980 ft | 282 kts | 349° |
| 2026-05-07 21:39 | 35.17478 | 6.67844 | 20970 ft | 281 kts | 349° |
| 2026-05-07 21:39 | 35.21384 | 6.67600 | 20971 ft | 281 kts | 349° |
| 2026-05-07 21:39 | 35.25278 | 6.67360 | 20973 ft | 280 kts | 349° |
| 2026-05-07 21:39 | 35.29174 | 6.67119 | 20974 ft | 280 kts | 349° |
| 2026-05-07 21:40 | 35.33062 | 6.66879 | 20968 ft | 278 kts | 349° |
| 2026-05-07 21:40 | 35.36923 | 6.66637 | 20975 ft | 280 kts | 348° |
| 2026-05-07 21:40 | 35.40812 | 6.66402 | 20976 ft | 281 kts | 349° |
| 2026-05-07 21:40 | 35.44713 | 6.66158 | 20974 ft | 280 kts | 348° |
| 2026-05-07 21:41 | 35.48606 | 6.65915 | 20974 ft | 280 kts | 348° |
| 2026-05-07 21:41 | 35.52496 | 6.65669 | 20979 ft | 280 kts | 348° |
| 2026-05-07 21:41 | 35.56392 | 6.65428 | 20977 ft | 280 kts | 348° |
| 2026-05-07 21:41 | 35.60287 | 6.65183 | 20978 ft | 280 kts | 348° |
| 2026-05-07 21:42 | 35.64179 | 6.64946 | 20978 ft | 280 kts | 348° |
| 2026-05-07 21:42 | 35.68078 | 6.64700 | 20980 ft | 280 kts | 348° |
| 2026-05-07 21:42 | 35.71968 | 6.64457 | 20985 ft | 280 kts | 348° |
| 2026-05-07 21:42 | 35.75874 | 6.64213 | 20984 ft | 280 kts | 348° |
| 2026-05-07 21:43 | 35.79709 | 6.63972 | 20985 ft | 280 kts | 348° |
| 2026-05-07 21:43 | 35.83592 | 6.63729 | 20980 ft | 279 kts | 348° |
| 2026-05-07 21:43 | 35.87467 | 6.63485 | 20979 ft | 279 kts | 348° |
| 2026-05-07 21:43 | 35.91342 | 6.63244 | 20977 ft | 280 kts | 348° |
| 2026-05-07 21:44 | 35.95249 | 6.62999 | 20975 ft | 280 kts | 348° |
| 2026-05-07 21:44 | 35.99125 | 6.62754 | 20976 ft | 280 kts | 348° |
| 2026-05-07 21:44 | 36.03020 | 6.62509 | 20981 ft | 280 kts | 348° |
| 2026-05-07 21:44 | 36.06906 | 6.62263 | 20986 ft | 280 kts | 348° |
| 2026-05-07 21:45 | 36.10798 | 6.62019 | 20991 ft | 280 kts | 348° |
| 2026-05-07 21:45 | 36.14700 | 6.61770 | 20993 ft | 281 kts | 348° |
| 2026-05-07 21:45 | 36.18600 | 6.61524 | 21002 ft | 281 kts | 348° |
| 2026-05-07 21:45 | 36.22500 | 6.61277 | 21002 ft | 281 kts | 348° |
| 2026-05-07 21:46 | 36.26402 | 6.61026 | 21005 ft | 281 kts | 347° |
| 2026-05-07 21:46 | 36.30343 | 6.60984 | 21006 ft | 290 kts | 358° |
| 2026-05-07 21:46 | 36.34364 | 6.61606 | 21005 ft | 291 kts | 357° |
| 2026-05-07 21:46 | 36.38395 | 6.62210 | 21000 ft | 293 kts | 358° |
| 2026-05-07 21:47 | 36.42444 | 6.62828 | 20992 ft | 293 kts | 357° |
| 2026-05-07 21:47 | 36.46487 | 6.63441 | 20994 ft | 293 kts | 357° |
| 2026-05-07 21:47 | 36.50537 | 6.64058 | 20978 ft | 293 kts | 357° |
| 2026-05-07 21:47 | 36.54599 | 6.64668 | 20978 ft | 295 kts | 357° |
| 2026-05-07 21:48 | 36.58680 | 6.65293 | 20966 ft | 295 kts | 357° |
| 2026-05-07 21:48 | 36.62754 | 6.65914 | 20960 ft | 296 kts | 357° |
| 2026-05-07 21:48 | 36.66844 | 6.66540 | 20957 ft | 296 kts | 357° |
| 2026-05-07 21:48 | 36.70918 | 6.67163 | 20962 ft | 296 kts | 357° |
| 2026-05-07 21:49 | 36.75015 | 6.67790 | 20956 ft | 297 kts | 357° |
| 2026-05-07 21:49 | 36.79129 | 6.68419 | 20955 ft | 298 kts | 357° |
| 2026-05-07 21:49 | 36.83240 | 6.69054 | 20954 ft | 297 kts | 357° |
| 2026-05-07 21:49 | 36.87272 | 6.69671 | 20960 ft | 297 kts | 357° |
| 2026-05-07 21:50 | 36.91406 | 6.70307 | 20953 ft | 298 kts | 358° |
| 2026-05-07 21:50 | 36.95529 | 6.70943 | 20957 ft | 298 kts | 357° |
| 2026-05-07 21:50 | 36.99663 | 6.71579 | 20960 ft | 299 kts | 358° |
| 2026-05-07 21:50 | 37.03802 | 6.72218 | 20955 ft | 299 kts | 358° |
| 2026-05-07 21:51 | 37.07943 | 6.72858 | 20961 ft | 300 kts | 358° |
| 2026-05-07 21:51 | 37.12085 | 6.73498 | 20958 ft | 300 kts | 358° |
| 2026-05-07 21:51 | 37.16248 | 6.74143 | 20954 ft | 302 kts | 358° |
| 2026-05-07 21:51 | 37.20410 | 6.74788 | 20956 ft | 301 kts | 358° |
| 2026-05-07 21:52 | 37.24574 | 6.75434 | 20960 ft | 302 kts | 358° |
| 2026-05-07 21:52 | 37.28743 | 6.76082 | 20961 ft | 302 kts | 359° |
| 2026-05-07 21:52 | 37.32916 | 6.76730 | 20957 ft | 303 kts | 359° |
| 2026-05-07 21:52 | 37.37107 | 6.77383 | 20961 ft | 303 kts | 359° |
| 2026-05-07 21:53 | 37.41311 | 6.78038 | 20961 ft | 304 kts | 359° |
| 2026-05-07 21:53 | 37.45465 | 6.78687 | 20960 ft | 304 kts | 359° |
| 2026-05-07 21:53 | 37.49677 | 6.79344 | 20961 ft | 306 kts | 359° |
| 2026-05-07 21:53 | 37.53913 | 6.80007 | 20957 ft | 306 kts | 360° |
| 2026-05-07 21:54 | 37.58142 | 6.80669 | 20957 ft | 306 kts | 360° |
| 2026-05-07 21:54 | 37.62373 | 6.81332 | 20964 ft | 307 kts | 0° |
| 2026-05-07 21:54 | 37.66615 | 6.82006 | 20965 ft | 307 kts | 1° |
| 2026-05-07 21:54 | 37.70850 | 6.82673 | 20965 ft | 307 kts | 0° |
| 2026-05-07 21:55 | 37.75090 | 6.83334 | 20965 ft | 307 kts | 1° |
| 2026-05-07 21:55 | 37.79324 | 6.84002 | 20965 ft | 307 kts | 1° |
| 2026-05-07 21:55 | 37.83558 | 6.84670 | 20967 ft | 307 kts | 1° |
| 2026-05-07 21:55 | 37.87818 | 6.85343 | 20964 ft | 307 kts | 1° |
| 2026-05-07 21:56 | 37.92063 | 6.86013 | 20965 ft | 308 kts | 1° |
| 2026-05-07 21:56 | 37.96313 | 6.86686 | 20969 ft | 308 kts | 1° |
| 2026-05-07 21:56 | 38.00559 | 6.87358 | 20968 ft | 308 kts | 1° |
| 2026-05-07 21:56 | 38.04830 | 6.88036 | 20971 ft | 309 kts | 2° |
| 2026-05-07 21:57 | 38.09096 | 6.88713 | 20967 ft | 308 kts | 2° |
| 2026-05-07 21:57 | 38.13295 | 6.89380 | 20966 ft | 308 kts | 2° |
| 2026-05-07 21:57 | 38.17557 | 6.90058 | 20966 ft | 308 kts | 2° |
| 2026-05-07 21:57 | 38.21825 | 6.90739 | 20966 ft | 308 kts | 2° |
| 2026-05-07 21:58 | 38.26080 | 6.91417 | 20967 ft | 308 kts | 2° |
| 2026-05-07 21:58 | 38.30321 | 6.92096 | 20962 ft | 308 kts | 2° |
| 2026-05-07 21:58 | 38.34578 | 6.92779 | 20963 ft | 308 kts | 2° |
| 2026-05-07 21:58 | 38.38835 | 6.93458 | 20965 ft | 308 kts | 2° |
| 2026-05-07 21:59 | 38.43086 | 6.94140 | 20964 ft | 308 kts | 2° |
| 2026-05-07 21:59 | 38.47345 | 6.94823 | 20965 ft | 308 kts | 2° |
| 2026-05-07 21:59 | 38.51600 | 6.95507 | 20966 ft | 308 kts | 2° |
| 2026-05-07 21:59 | 38.55843 | 6.96190 | 20965 ft | 307 kts | 2° |
| 2026-05-07 22:00 | 38.60089 | 6.96873 | 20965 ft | 307 kts | 2° |
| 2026-05-07 22:00 | 38.64272 | 6.97548 | 20966 ft | 307 kts | 2° |
| 2026-05-07 22:00 | 38.68506 | 6.98231 | 20967 ft | 306 kts | 2° |
| 2026-05-07 22:00 | 38.72735 | 6.98914 | 20969 ft | 306 kts | 3° |
| 2026-05-07 22:01 | 38.76969 | 6.99599 | 20967 ft | 306 kts | 3° |
| 2026-05-07 22:01 | 38.81196 | 7.00284 | 20967 ft | 306 kts | 3° |
| 2026-05-07 22:01 | 38.85422 | 7.00969 | 20966 ft | 306 kts | 3° |
| 2026-05-07 22:01 | 38.89645 | 7.01655 | 20968 ft | 306 kts | 3° |
| 2026-05-07 22:02 | 38.93869 | 7.02342 | 20970 ft | 306 kts | 4° |
| 2026-05-07 22:02 | 38.98094 | 7.03029 | 20965 ft | 306 kts | 4° |
| 2026-05-07 22:02 | 39.02317 | 7.03557 | 20964 ft | 304 kts | 359° |
| 2026-05-07 22:02 | 39.06540 | 7.03887 | 20961 ft | 304 kts | 0° |
| 2026-05-07 22:03 | 39.10772 | 7.04158 | 20959 ft | 303 kts | 356° |
| 2026-05-07 22:03 | 39.14933 | 7.04136 | 20964 ft | 303 kts | 357° |
| 2026-05-07 22:03 | 39.19150 | 7.04242 | 20970 ft | 303 kts | 357° |
| 2026-05-07 22:03 | 39.23378 | 7.04305 | 20968 ft | 303 kts | 357° |
| 2026-05-07 22:04 | 39.27602 | 7.04383 | 20968 ft | 303 kts | 358° |
| 2026-05-07 22:04 | 39.31818 | 7.04455 | 20969 ft | 303 kts | 358° |
| 2026-05-07 22:04 | 39.36034 | 7.04529 | 20971 ft | 303 kts | 358° |
| 2026-05-07 22:04 | 39.38824 | 7.04579 | 20971 ft | 303 kts | 358° |
| 2026-05-07 22:05 | 39.43039 | 7.04653 | 20971 ft | 303 kts | 358° |
| 2026-05-07 22:05 | 39.47252 | 7.04727 | 20967 ft | 302 kts | 358° |
| 2026-05-07 22:05 | 39.51457 | 7.04801 | 20972 ft | 302 kts | 358° |
| 2026-05-07 22:05 | 39.57037 | 7.04899 | 20973 ft | 302 kts | 358° |
| 2026-05-07 22:06 | 39.59862 | 7.04949 | 20971 ft | 301 kts | 358° |
| 2026-05-07 22:06 | 39.64057 | 7.05023 | 20975 ft | 301 kts | 358° |
| 2026-05-07 22:06 | 39.68235 | 7.05097 | 20973 ft | 301 kts | 358° |
| 2026-05-07 22:06 | 39.72421 | 7.05171 | 20973 ft | 300 kts | 358° |
| 2026-05-07 22:07 | 39.76547 | 7.05245 | 20976 ft | 300 kts | 358° |
| 2026-05-07 22:07 | 39.80725 | 7.05319 | 20977 ft | 300 kts | 358° |
| 2026-05-07 22:07 | 39.84904 | 7.05393 | 20975 ft | 300 kts | 358° |
| 2026-05-07 22:07 | 39.89091 | 7.05467 | 20974 ft | 301 kts | 358° |
| 2026-05-07 22:08 | 39.93277 | 7.05543 | 20973 ft | 300 kts | 358° |
| 2026-05-07 22:08 | 39.97454 | 7.05617 | 20969 ft | 300 kts | 358° |
| 2026-05-07 22:08 | 40.01633 | 7.05691 | 20971 ft | 300 kts | 359° |
| 2026-05-07 22:08 | 40.05812 | 7.05766 | 20974 ft | 301 kts | 359° |
| 2026-05-07 22:09 | 40.09997 | 7.05841 | 20976 ft | 301 kts | 359° |
| 2026-05-07 22:09 | 40.14191 | 7.05916 | 20977 ft | 302 kts | 359° |
| 2026-05-07 22:09 | 40.18392 | 7.05992 | 20977 ft | 302 kts | 359° |
| 2026-05-07 22:09 | 40.22587 | 7.06067 | 20977 ft | 302 kts | 359° |
| 2026-05-07 22:10 | 40.26795 | 7.06143 | 20980 ft | 302 kts | 359° |
| 2026-05-07 22:10 | 40.30948 | 7.06218 | 20982 ft | 302 kts | 359° |
| 2026-05-07 22:10 | 40.35153 | 7.06294 | 20979 ft | 301 kts | 359° |
| 2026-05-07 22:10 | 40.39351 | 7.06370 | 20981 ft | 302 kts | 359° |
| 2026-05-07 22:11 | 40.43604 | 7.06447 | 20984 ft | 301 kts | 359° |
| 2026-05-07 22:11 | 40.47745 | 7.06522 | 20987 ft | 302 kts | 359° |
| 2026-05-07 22:11 | 40.51945 | 7.06598 | 20985 ft | 304 kts | 359° |
| 2026-05-07 22:11 | 40.56176 | 7.06675 | 20985 ft | 304 kts | 359° |
| 2026-05-07 22:12 | 40.60400 | 7.06752 | 20982 ft | 302 kts | 359° |
| 2026-05-07 22:12 | 40.64588 | 7.06828 | 20981 ft | 301 kts | 359° |
| 2026-05-07 22:12 | 40.68768 | 7.06905 | 20977 ft | 300 kts | 359° |
| 2026-05-07 22:12 | 40.72935 | 7.06981 | 20979 ft | 299 kts | 359° |
| 2026-05-07 22:13 | 40.77098 | 7.07057 | 20974 ft | 299 kts | 359° |
| 2026-05-07 22:13 | 40.81249 | 7.07133 | 20976 ft | 298 kts | 359° |
| 2026-05-07 22:13 | 40.85401 | 7.07209 | 20976 ft | 297 kts | 359° |
| 2026-05-07 22:13 | 40.89523 | 7.07284 | 20974 ft | 296 kts | 360° |
| 2026-05-07 22:14 | 40.93643 | 7.07360 | 20976 ft | 296 kts | 360° |
| 2026-05-07 22:14 | 40.97713 | 7.07435 | 20977 ft | 295 kts | 359° |
| 2026-05-07 22:14 | 41.01855 | 7.07511 | 20977 ft | 293 kts | 359° |
| 2026-05-07 22:14 | 41.05880 | 7.07585 | 20973 ft | 292 kts | 359° |
| 2026-05-07 22:15 | 41.09944 | 7.07661 | 20978 ft | 291 kts | 359° |
| 2026-05-07 22:15 | 41.13993 | 7.07735 | 20978 ft | 290 kts | 359° |
| 2026-05-07 22:15 | 41.18014 | 7.07810 | 20981 ft | 289 kts | 359° |
| 2026-05-07 22:15 | 41.22040 | 7.07884 | 20983 ft | 289 kts | 359° |
| 2026-05-07 22:16 | 41.26068 | 7.07952 | 20983 ft | 289 kts | 359° |
| 2026-05-07 22:16 | 41.30098 | 7.08042 | 20983 ft | 288 kts | 359° |
| 2026-05-07 22:16 | 41.34097 | 7.08110 | 20981 ft | 287 kts | 359° |
| 2026-05-07 22:16 | 41.38101 | 7.08185 | 20982 ft | 287 kts | 359° |
| 2026-05-07 22:17 | 41.42098 | 7.08260 | 20983 ft | 288 kts | 359° |
| 2026-05-07 22:17 | 41.46123 | 7.08335 | 20991 ft | 290 kts | 359° |
| 2026-05-07 22:17 | 41.50157 | 7.08412 | 20996 ft | 291 kts | 359° |
| 2026-05-07 22:17 | 41.54216 | 7.08487 | 20997 ft | 291 kts | 359° |
| 2026-05-07 22:18 | 41.58267 | 7.08563 | 21000 ft | 292 kts | 359° |
| 2026-05-07 22:18 | 41.66406 | 7.08711 | 21002 ft | 296 kts | 358° |
| 2026-05-07 22:18 | 41.70551 | 7.08791 | 21005 ft | 299 kts | 358° |
| 2026-05-07 22:19 | 41.74724 | 7.08870 | 21005 ft | 301 kts | 358° |
| 2026-05-07 22:19 | 41.78933 | 7.08949 | 21002 ft | 303 kts | 358° |
| 2026-05-07 22:19 | 41.83163 | 7.09029 | 21004 ft | 304 kts | 358° |
| 2026-05-07 22:19 | 41.87394 | 7.09109 | 21005 ft | 304 kts | 358° |
| 2026-05-07 22:20 | 41.91627 | 7.09189 | 21010 ft | 304 kts | 358° |
| 2026-05-07 22:20 | 41.95858 | 7.09270 | 21007 ft | 303 kts | 358° |
| 2026-05-07 22:20 | 42.00075 | 7.09350 | 21007 ft | 303 kts | 358° |
| 2026-05-07 22:20 | 42.04286 | 7.09430 | 21007 ft | 302 kts | 358° |
| 2026-05-07 22:21 | 42.08491 | 7.09510 | 21011 ft | 302 kts | 357° |
| 2026-05-07 22:21 | 42.12696 | 7.09590 | 21005 ft | 302 kts | 357° |
| 2026-05-07 22:21 | 42.16890 | 7.09669 | 21010 ft | 301 kts | 357° |
| 2026-05-07 22:21 | 42.21083 | 7.09742 | 21011 ft | 301 kts | 357° |
| 2026-05-07 22:22 | 42.25264 | 7.09832 | 21008 ft | 300 kts | 358° |
| 2026-05-07 22:22 | 42.29392 | 7.09906 | 21015 ft | 300 kts | 357° |
| 2026-05-07 22:22 | 42.33572 | 7.09988 | 21013 ft | 300 kts | 357° |
| 2026-05-07 22:22 | 42.37745 | 7.10068 | 21016 ft | 300 kts | 357° |
| 2026-05-07 22:23 | 42.41935 | 7.10149 | 21016 ft | 300 kts | 357° |
| 2026-05-07 22:23 | 42.46104 | 7.10229 | 21010 ft | 300 kts | 357° |
| 2026-05-07 22:23 | 42.50274 | 7.10310 | 21016 ft | 300 kts | 356° |
| 2026-05-07 22:23 | 42.54450 | 7.10390 | 21017 ft | 300 kts | 356° |
| 2026-05-07 22:24 | 42.58629 | 7.10471 | 21018 ft | 300 kts | 356° |
| 2026-05-07 22:24 | 42.62827 | 7.10550 | 20686 ft | 305 kts | 356° |
| 2026-05-07 22:24 | 42.66947 | 7.10638 | 19859 ft | 287 kts | 357° |
| 2026-05-07 22:24 | 42.70901 | 7.10704 | 19075 ft | 292 kts | 357° |
| 2026-05-07 22:25 | 42.74827 | 7.10790 | 18292 ft | 277 kts | 358° |
| 2026-05-07 22:25 | 42.78618 | 7.10859 | 17500 ft | 285 kts | 358° |
| 2026-05-07 22:25 | 42.82706 | 7.10941 | 16743 ft | 295 kts | 358° |
| 2026-05-07 22:25 | 42.86703 | 7.11023 | 15931 ft | 273 kts | 359° |
| 2026-05-07 22:26 | 42.90199 | 7.11088 | 15183 ft | 253 kts | 359° |
| 2026-05-07 22:26 | 42.93769 | 7.11157 | 14509 ft | 253 kts | 359° |
| 2026-05-07 22:26 | 42.97269 | 7.11226 | 13819 ft | 251 kts | 359° |
| 2026-05-07 22:26 | 43.00748 | 7.11295 | 13113 ft | 248 kts | 359° |
| 2026-05-07 22:27 | 43.04185 | 7.11363 | 12439 ft | 246 kts | 359° |
| 2026-05-07 22:27 | 43.07589 | 7.11426 | 11778 ft | 243 kts | 359° |
| 2026-05-07 22:27 | 43.10956 | 7.11493 | 11118 ft | 241 kts | 359° |
| 2026-05-07 22:27 | 43.14292 | 7.11559 | 10468 ft | 238 kts | 359° |
| 2026-05-07 22:28 | 43.17589 | 7.11624 | 9815 ft | 235 kts | 359° |
| 2026-05-07 22:28 | 43.20792 | 7.11688 | 9173 ft | 230 kts | 359° |
| 2026-05-07 22:28 | 43.24024 | 7.11750 | 8544 ft | 229 kts | 359° |
| 2026-05-07 22:28 | 43.27148 | 7.11813 | 7937 ft | 226 kts | 359° |
| 2026-05-07 22:29 | 43.30275 | 7.11874 | 7325 ft | 223 kts | 358° |
| 2026-05-07 22:29 | 43.33365 | 7.11936 | 6726 ft | 222 kts | 359° |
| 2026-05-07 22:29 | 43.36444 | 7.11997 | 6110 ft | 220 kts | 359° |
| 2026-05-07 22:29 | 43.39485 | 7.12057 | 5509 ft | 218 kts | 359° |
| 2026-05-07 22:30 | 43.42474 | 7.11688 | 4934 ft | 214 kts | 349° |
| 2026-05-07 22:30 | 43.45192 | 7.11129 | 4389 ft | 178 kts | 349° |
| 2026-05-07 22:30 | 43.47504 | 7.10682 | 3949 ft | 164 kts | 349° |
| 2026-05-07 22:30 | 43.49692 | 7.10258 | 3524 ft | 158 kts | 349° |
| 2026-05-07 22:31 | 43.51842 | 7.09824 | 3093 ft | 155 kts | 349° |
| 2026-05-07 22:31 | 43.53955 | 7.09382 | 2647 ft | 154 kts | 349° |
| 2026-05-07 22:31 | 43.56045 | 7.08936 | 2152 ft | 153 kts | 349° |
| 2026-05-07 22:31 | 43.57450 | 7.09516 | 1946 ft | 159 kts | 50° |
| 2026-05-07 22:32 | 43.57828 | 7.10386 | 1862 ft | 160 kts | 57° |